Owensville, Ohio
Current Conditions -  °F | °C
As of 10:53 AM on Friday 19 Dec 2014 (Local Time) from KLUK Reporting Station
Overcast Overcast  
Wind Chill: 29°   Ceiling: 2400
Heat Index: 29°   Visibility: 9mi
Dew Point: 21°   Wind: 3mph
Humidity: 72%   Direction: 40°NE
Pressure: 30.33"   Gusts: NA
Location:  39.12°N, 84.14°W
Report Text: KLUK 191553Z 04003KT 9SM OVC024 M02/M06 A3033 RMK AO2 SLP274 T10171061
Loading
Personal Weather Stations






























Interactive Weather Map New forecast layout! Learn more

10-Day Weather Forecast

Advertisements
Track Severe Weather on mobile